Time;durP1;ratioP1;P1;durP2;ratioP2;P2;SDS_P1;SDS_P2;PMS_P1;PMS_P2;Temp;Humidity;BMP_temperature;BMP_pressure;BME280_temperature;BME280_humidity;BME280_pressure;Samples;Min_cycle;Max_cycle;Signal;HPM_P1;HPM_P2
2021/08/06 00:00:25;;;;;;;16.15;5.18;;;;;;;27.34;37.87;93741.13;2948583;40;20053;-70
2021/08/06 00:02:27;;;;;;;14.88;4.80;;;;;;;27.33;37.91;93736.03;2950504;40;20376;-79
2021/08/06 00:04:29;;;;;;;14.35;4.38;;;;;;;27.35;37.78;93731.97;2950739;40;20049;-71
2021/08/06 00:06:32;;;;;;;10.10;4.60;;;;;;;27.33;38.14;93728.75;2949399;40;20282;-69
2021/08/06 00:08:34;;;;;;;12.02;4.95;;;;;;;27.37;38.34;93724.41;2947612;40;20126;-71
2021/08/06 00:10:36;;;;;;;16.63;5.50;;;;;;;27.36;38.18;93730.91;2950043;40;20461;-69
2021/08/06 00:12:38;;;;;;;15.13;5.50;;;;;;;27.36;38.05;93719.31;2950117;40;20146;-70
2021/08/06 00:14:39;;;;;;;15.18;4.70;;;;;;;26.96;38.89;93716.00;2950532;40;20119;-70
2021/08/06 00:16:41;;;;;;;12.90;6.18;;;;;;;26.76;39.24;93709.75;2949570;40;20057;-70
2021/08/06 00:18:43;;;;;;;15.30;5.25;;;;;;;26.65;39.71;93708.25;2950424;40;20472;-70
2021/08/06 00:20:45;;;;;;;12.55;5.13;;;;;;;26.54;39.86;93712.91;2949864;40;20146;-69
2021/08/06 00:22:47;;;;;;;13.45;4.93;;;;;;;26.43;40.22;93714.03;2946048;40;20581;-70
2021/08/06 00:24:49;;;;;;;15.27;5.75;;;;;;;26.42;40.38;93706.28;2961397;40;20068;-70
2021/08/06 00:26:50;;;;;;;14.80;5.53;;;;;;;26.41;40.56;93704.69;2949788;40;20130;-70
2021/08/06 00:28:52;;;;;;;12.85;5.30;;;;;;;26.25;40.77;93706.69;2950296;40;20061;-71
2021/08/06 00:30:54;;;;;;;16.00;5.88;;;;;;;26.10;40.92;93697.69;2957031;40;20115;-69
2021/08/06 00:32:56;;;;;;;15.05;5.72;;;;;;;25.96;41.43;93712.78;2948408;40;20045;-70
2021/08/06 00:34:58;;;;;;;13.27;4.85;;;;;;;26.05;41.15;93705.78;2949901;40;20147;-70
2021/08/06 00:36:59;;;;;;;17.60;5.03;;;;;;;26.17;40.80;93704.59;2948895;40;20457;-70
2021/08/06 00:39:01;;;;;;;16.35;5.40;;;;;;;26.33;40.68;93703.41;2950399;40;20403;-71
2021/08/06 00:41:03;;;;;;;13.55;4.97;;;;;;;26.49;40.47;93690.66;2948788;40;20679;-70
2021/08/06 00:43:04;;;;;;;12.65;5.10;;;;;;;26.60;40.23;93692.16;2950399;40;20053;-71
2021/08/06 00:45:07;;;;;;;12.18;5.60;;;;;;;26.31;40.77;93689.47;2952461;40;20359;-70
2021/08/06 00:47:09;;;;;;;11.57;4.97;;;;;;;26.03;41.68;93693.69;2956943;40;20065;-69
2021/08/06 00:49:11;;;;;;;10.57;4.57;;;;;;;25.84;41.61;93697.03;2954704;40;20445;-70
2021/08/06 00:51:13;;;;;;;15.00;5.45;;;;;;;25.60;42.06;93702.28;2955749;40;20058;-70
2021/08/06 00:53:15;;;;;;;10.87;3.90;;;;;;;25.56;42.16;93693.19;2957169;40;20084;-71
2021/08/06 00:55:17;;;;;;;11.55;4.75;;;;;;;25.65;41.93;93682.66;2948885;40;20045;-69
2021/08/06 00:57:19;;;;;;;15.27;5.15;;;;;;;25.60;41.80;93683.50;2950612;40;20268;-70
2021/08/06 00:59:20;;;;;;;13.43;4.75;;;;;;;25.58;42.13;93679.50;2949840;40;20417;-70
2021/08/06 01:01:25;;;;;;;10.93;4.47;;;;;;;25.64;41.91;93671.16;2949719;40;20093;-70
2021/08/06 01:03:51;;;;;;;13.02;4.80;;;;;;;25.66;42.15;93676.22;2947062;40;20045;-69
2021/08/06 01:06:06;;;;;;;14.18;5.28;;;;;;;25.64;41.98;93681.88;2944396;40;20062;-70
2021/08/06 01:08:14;;;;;;;16.17;4.68;;;;;;;25.53;42.17;93693.72;2949088;40;20349;-70
2021/08/06 01:10:17;;;;;;;13.30;4.95;;;;;;;25.72;41.83;93689.31;2942905;40;20112;-70
2021/08/06 01:12:30;;;;;;;10.67;5.00;;;;;;;25.89;41.48;93690.84;2948395;40;20348;-69
2021/08/06 01:14:36;;;;;;;16.77;4.38;;;;;;;26.01;41.20;93695.88;2948700;40;20132;-69
2021/08/06 01:16:38;;;;;;;12.15;4.60;;;;;;;26.08;40.87;93697.16;2944503;40;20061;-70
2021/08/06 01:18:51;;;;;;;11.63;4.28;;;;;;;26.17;40.77;93707.28;2944637;40;20361;-71
2021/08/06 01:20:57;;;;;;;16.67;5.10;;;;;;;26.23;40.86;93711.53;2945713;40;20054;-69
2021/08/06 01:23:26;;;;;;;14.00;4.40;;;;;;;26.28;40.63;93714.97;2946713;40;20211;-70
2021/08/06 01:25:54;;;;;;;8.70;4.65;;;;;;;26.31;40.71;93711.75;2956692;40;20056;-69
2021/08/06 01:27:57;;;;;;;16.25;4.55;;;;;;;26.34;40.58;93713.06;2955344;40;20065;-70
2021/08/06 01:29:58;;;;;;;11.48;4.45;;;;;;;26.36;40.29;93705.53;2955708;40;20395;-69
2021/08/06 01:32:00;;;;;;;11.68;4.60;;;;;;;26.38;40.60;93695.31;2945946;40;20525;-70
2021/08/06 01:34:02;;;;;;;15.93;5.32;;;;;;;26.43;40.61;93697.94;2942993;40;20054;-70
2021/08/06 01:36:04;;;;;;;10.65;4.13;;;;;;;26.42;40.53;93688.28;2949480;40;20069;-71
2021/08/06 01:38:08;;;;;;;13.55;4.28;;;;;;;26.41;40.21;93692.03;2949335;40;20063;-80
2021/08/06 01:40:09;;;;;;;;;;;;;;;26.39;40.51;93698.78;2964214;40;20064;-70
2021/08/06 01:42:29;;;;;;;13.05;4.30;;;;;;;26.42;40.55;93704.41;2955052;40;20280;-71
2021/08/06 01:45:00;;;;;;;12.00;4.03;;;;;;;26.48;40.44;93705.13;2948202;40;20131;-71
2021/08/06 01:47:08;;;;;;;9.13;4.25;;;;;;;26.48;40.49;93705.13;2962581;40;20173;-70
2021/08/06 01:49:22;;;;;;;14.65;4.80;;;;;;;26.46;40.46;93705.44;2949196;40;20127;-69
2021/08/06 01:51:23;;;;;;;12.60;4.25;;;;;;;26.38;40.62;93706.03;2956415;40;20055;-69
2021/08/06 01:53:25;;;;;;;9.88;4.55;;;;;;;26.38;40.64;93716.00;2949932;40;20068;-70
2021/08/06 01:55:38;;;;;;;13.43;4.30;;;;;;;26.34;40.66;93711.16;2965795;40;20041;-69
2021/08/06 01:57:40;;;;;;;13.13;4.43;;;;;;;26.34;40.56;93708.47;2964969;40;20110;-70
2021/08/06 01:59:43;;;;;;;15.90;5.30;;;;;;;26.39;40.74;93707.63;2961393;40;20054;-72
2021/08/06 02:01:45;;;;;;;16.83;4.88;;;;;;;26.38;40.82;93703.34;2961143;40;20056;-70
2021/08/06 02:03:47;;;;;;;13.75;4.80;;;;;;;26.36;41.00;93692.09;2956068;40;20438;-70
2021/08/06 02:05:52;;;;;;;11.52;4.82;;;;;;;26.27;41.17;93688.44;2949367;40;20118;-71
2021/08/06 02:07:54;;;;;;;15.85;4.50;;;;;;;26.27;41.26;93694.59;2964795;40;20364;-70
2021/08/06 02:09:55;;;;;;;9.40;4.68;;;;;;;26.28;41.37;93703.44;2950213;40;20092;-69
2021/08/06 02:11:57;;;;;;;16.45;4.97;;;;;;;26.23;41.49;93700.81;2949451;40;20076;-69
2021/08/06 02:13:59;;;;;;;10.93;4.45;;;;;;;26.08;41.74;93697.16;2949529;40;20136;-70
2021/08/06 02:16:01;;;;;;;14.68;5.53;;;;;;;26.12;41.71;93684.78;2949754;40;20089;-70
2021/08/06 02:18:03;;;;;;;13.10;5.22;;;;;;;26.10;41.78;93681.56;2949016;40;20147;-69
2021/08/06 02:20:06;;;;;;;13.70;5.22;;;;;;;26.13;41.65;93683.69;2940902;40;20073;-69
2021/08/06 02:22:08;;;;;;;11.98;4.95;;;;;;;26.17;41.39;93683.13;2948835;40;20061;-70
2021/08/06 02:24:12;;;;;;;12.93;5.57;;;;;;;26.13;41.70;93685.56;2948532;40;20112;-78
2021/08/06 02:26:16;;;;;;;8.95;4.70;;;;;;;26.08;42.05;93691.78;2946360;40;20134;-79
2021/08/06 02:28:18;;;;;;;10.15;4.50;;;;;;;26.10;41.83;93684.25;2949281;40;20111;-78
2021/08/06 02:30:21;;;;;;;22.45;8.00;;;;;;;26.08;42.02;93682.94;2957751;40;20556;-80
2021/08/06 02:32:24;;;;;;;16.10;4.50;;;;;;;26.02;42.35;93679.47;2950327;40;20045;-80
2021/08/06 02:34:26;;;;;;;12.60;4.73;;;;;;;26.02;42.53;93676.78;2948457;40;20312;-80
2021/08/06 02:36:28;;;;;;;14.82;4.25;;;;;;;26.05;42.32;93680.81;2956171;40;20385;-79
2021/08/06 02:38:30;;;;;;;16.48;4.47;;;;;;;25.93;42.81;93679.28;2950367;40;20065;-79
2021/08/06 02:40:32;;;;;;;12.73;4.70;;;;;;;25.93;42.74;93679.28;2952690;40;20155;-78
2021/08/06 02:42:34;;;;;;;13.77;5.20;;;;;;;25.86;42.68;93673.41;2949018;40;20381;-80
2021/08/06 02:44:37;;;;;;;14.43;4.82;;;;;;;25.82;42.99;93682.28;2950258;40;20089;-79
2021/08/06 02:46:39;;;;;;;16.92;4.47;;;;;;;25.75;43.33;93672.69;2965597;40;20138;-79
2021/08/06 02:48:41;;;;;;;15.73;5.05;;;;;;;25.73;43.34;93679.41;2945940;40;20402;-81
2021/08/06 02:50:43;;;;;;;12.68;4.53;;;;;;;25.81;43.13;93673.44;2950088;40;20476;-79
2021/08/06 02:52:45;;;;;;;15.25;4.18;;;;;;;25.79;43.31;93675.63;2949231;40;20057;-78
2021/08/06 02:54:46;;;;;;;14.45;4.97;;;;;;;25.75;43.34;93680.72;2950073;40;20535;-70
2021/08/06 02:56:48;;;;;;;12.80;4.20;;;;;;;25.71;43.42;93682.34;2945748;40;20115;-70
2021/08/06 02:58:50;;;;;;;9.55;4.05;;;;;;;25.65;43.63;93685.34;2949742;40;20130;-69
2021/08/06 03:00:51;;;;;;;12.77;4.60;;;;;;;25.57;43.75;93685.94;2949855;40;20303;-80
2021/08/06 03:02:53;;;;;;;14.00;4.90;;;;;;;25.49;43.51;93695.34;2949712;40;20181;-80
2021/08/06 03:04:55;;;;;;;10.90;3.83;;;;;;;25.44;43.84;93687.34;2966647;40;20114;-78
2021/08/06 03:06:57;;;;;;;10.90;3.78;;;;;;;25.51;43.45;93687.81;2951385;40;20088;-79
2021/08/06 03:08:59;;;;;;;9.02;4.18;;;;;;;25.46;43.20;93698.59;2952707;40;20089;-79
2021/08/06 03:11:00;;;;;;;13.18;4.80;;;;;;;25.43;43.45;93704.53;2960021;40;20057;-79
2021/08/06 03:13:02;;;;;;;8.93;3.65;;;;;;;25.41;43.71;93699.44;2950365;40;20519;-79
2021/08/06 03:15:04;;;;;;;15.10;4.90;;;;;;;25.43;44.10;93707.19;2949755;40;20083;-80
2021/08/06 03:17:06;;;;;;;10.10;3.90;;;;;;;25.42;43.53;93710.94;2949597;40;20053;-79
2021/08/06 03:19:08;;;;;;;9.40;3.38;;;;;;;25.24;44.25;93713.16;2949705;40;20143;-80
2021/08/06 03:21:10;;;;;;;12.73;3.75;;;;;;;25.04;44.75;93729.31;2949015;40;20076;-80
2021/08/06 03:23:11;;;;;;;12.75;3.88;;;;;;;25.04;45.50;93738.13;2948625;40;20103;-81
2021/08/06 03:25:13;;;;;;;14.32;3.90;;;;;;;25.00;46.14;93749.69;2946868;40;20045;-80
2021/08/06 03:27:15;;;;;;;10.43;4.00;;;;;;;24.85;47.45;93774.63;2949876;40;20061;-79
2021/08/06 03:29:16;;;;;;;9.43;3.67;;;;;;;24.67;48.73;93784.00;2949644;40;21168;-79
2021/08/06 03:31:18;;;;;;;10.00;3.75;;;;;;;24.45;48.88;93789.59;2951631;40;20099;-81
2021/08/06 03:33:20;;;;;;;11.13;4.15;;;;;;;24.21;49.18;93798.13;2949698;40;20049;-80
2021/08/06 03:35:22;;;;;;;11.98;4.15;;;;;;;24.05;50.63;93804.56;2948330;40;20064;-80
2021/08/06 03:37:23;;;;;;;12.63;3.78;;;;;;;23.98;51.21;93814.69;2956463;40;20512;-79
2021/08/06 03:39:25;;;;;;;10.20;3.47;;;;;;;23.94;51.77;93833.16;2950035;40;20053;-78
2021/08/06 03:41:27;;;;;;;8.63;4.22;;;;;;;23.82;52.53;93852.09;2950281;40;20045;-80
2021/08/06 03:43:29;;;;;;;10.90;4.03;;;;;;;23.60;54.00;93851.44;2952952;40;20153;-80
2021/08/06 03:45:30;;;;;;;10.60;4.03;;;;;;;23.42;54.96;93858.81;2941707;40;20289;-82
2021/08/06 03:47:34;;;;;;;7.50;3.53;;;;;;;23.22;56.51;93866.75;2948606;40;20049;-82
2021/08/06 03:49:36;;;;;;;6.88;3.55;;;;;;;23.11;56.51;93852.50;2949418;40;20064;-79
2021/08/06 03:51:38;;;;;;;7.78;3.85;;;;;;;23.16;56.14;93843.72;2948712;40;20065;-81
2021/08/06 03:53:39;;;;;;;8.35;3.88;;;;;;;23.11;57.57;93841.81;2960503;40;20054;-82
2021/08/06 03:55:43;;;;;;;11.68;3.40;;;;;;;23.10;57.23;93829.50;2947432;40;20076;-80
2021/08/06 03:57:50;;;;;;;8.25;4.05;;;;;;;23.08;57.22;93826.28;2964351;40;20088;-79
2021/08/06 03:59:51;;;;;;;8.77;4.15;;;;;;;22.99;58.09;93827.81;2949608;40;20065;-80
2021/08/06 04:01:53;;;;;;;7.18;3.80;;;;;;;22.82;58.00;93818.09;2949594;40;20075;-79
2021/08/06 04:03:55;;;;;;;8.40;3.65;;;;;;;22.85;57.47;93811.44;2957047;40;20061;-80
2021/08/06 04:05:56;;;;;;;9.10;3.58;;;;;;;22.75;57.35;93806.81;2949148;40;20114;-79
2021/08/06 04:07:58;;;;;;;8.85;3.60;;;;;;;22.72;57.07;93807.34;2948731;40;20288;-79
2021/08/06 04:10:02;;;;;;;7.68;3.55;;;;;;;22.77;56.41;93809.25;2949292;40;20134;-80
2021/08/06 04:12:04;;;;;;;8.10;2.90;;;;;;;22.74;56.45;93799.91;2949818;40;20057;-79
2021/08/06 04:14:06;;;;;;;6.95;3.53;;;;;;;22.84;56.55;93809.81;2949007;40;20082;-80
2021/08/06 04:16:08;;;;;;;5.90;3.80;;;;;;;22.90;56.67;93814.94;2949489;40;20064;-80
2021/08/06 04:18:10;;;;;;;7.03;3.40;;;;;;;22.91;56.24;93818.44;2949295;40;20357;-82
2021/08/06 04:20:11;;;;;;;9.77;3.40;;;;;;;23.01;55.88;93807.81;2950005;40;20046;-80
2021/08/06 04:22:14;;;;;;;8.55;3.33;;;;;;;23.13;55.30;93801.50;2949256;40;20135;-81
2021/08/06 04:24:15;;;;;;;7.55;3.58;;;;;;;23.24;56.03;93806.63;2965142;40;20082;-83
2021/08/06 04:26:17;;;;;;;8.88;3.47;;;;;;;23.29;54.54;93803.16;2949833;40;20057;-80
2021/08/06 04:28:19;;;;;;;10.00;3.72;;;;;;;23.41;54.70;93797.63;2949408;40;20367;-79
2021/08/06 04:30:21;;;;;;;6.13;3.30;;;;;;;23.48;55.03;93811.56;2949580;40;20084;-80
2021/08/06 04:32:22;;;;;;;8.10;3.47;;;;;;;23.59;55.88;93820.41;2956211;40;20134;-70
2021/08/06 04:34:24;;;;;;;7.63;3.38;;;;;;;23.70;55.59;93820.22;2948611;40;20065;-71
2021/08/06 04:36:26;;;;;;;9.35;3.30;;;;;;;23.79;54.73;93827.72;2952940;40;20213;-71
2021/08/06 04:38:27;;;;;;;6.53;3.20;;;;;;;23.87;54.34;93827.22;2947986;40;20073;-70
2021/08/06 04:40:29;;;;;;;7.20;3.35;;;;;;;23.86;52.91;93814.94;2955829;40;20065;-71
2021/08/06 04:42:31;;;;;;;7.43;3.63;;;;;;;23.85;54.41;93808.75;2947916;40;20081;-71
2021/08/06 04:44:36;;;;;;;7.13;3.63;;;;;;;23.81;52.54;93813.06;2942657;40;20400;-70
2021/08/06 04:46:38;;;;;;;6.90;3.33;;;;;;;23.78;52.19;93807.41;2956123;40;20117;-71
2021/08/06 04:48:39;;;;;;;7.72;3.58;;;;;;;23.83;53.77;93810.09;2950115;40;20429;-80
2021/08/06 04:50:41;;;;;;;5.72;3.03;;;;;;;23.89;54.68;93806.38;2950888;40;20057;-79
2021/08/06 04:52:43;;;;;;;7.53;4.22;;;;;;;23.94;55.93;93810.94;2949725;40;20059;-79
2021/08/06 04:54:45;;;;;;;6.45;3.50;;;;;;;24.03;55.40;93820.88;2950204;40;20058;-78
2021/08/06 04:56:46;;;;;;;6.88;3.30;;;;;;;24.09;53.68;93814.47;2950390;40;20061;-78
2021/08/06 04:58:48;;;;;;;8.73;3.75;;;;;;;24.12;53.41;93810.44;2950504;40;20134;-80
2021/08/06 05:00:50;;;;;;;7.60;3.72;;;;;;;24.17;53.63;93817.69;2950238;40;20057;-79
2021/08/06 05:02:52;;;;;;;9.38;3.80;;;;;;;24.22;52.76;93823.84;2950639;40;20158;-78
2021/08/06 05:04:53;;;;;;;6.65;3.70;;;;;;;24.26;53.34;93830.28;2949393;40;20037;-78
2021/08/06 05:06:55;;;;;;;12.02;4.00;;;;;;;24.22;53.37;93826.53;2949358;40;20577;-79
2021/08/06 05:08:58;;;;;;;8.00;4.00;;;;;;;24.17;54.41;93834.53;2950372;40;20135;-77
2021/08/06 05:10:59;;;;;;;6.90;4.05;;;;;;;24.13;55.11;93841.47;2949782;40;20060;-79
2021/08/06 05:13:01;;;;;;;5.78;3.88;;;;;;;24.06;56.39;93840.94;2945410;40;20094;-81
2021/08/06 05:15:03;;;;;;;11.30;4.57;;;;;;;24.02;57.13;93837.97;2949954;40;20061;-79
2021/08/06 05:17:05;;;;;;;10.98;4.55;;;;;;;24.04;56.95;93843.84;2956537;40;20060;-77
2021/08/06 05:19:07;;;;;;;9.82;4.20;;;;;;;24.06;57.34;93847.06;2954069;40;20057;-79
2021/08/06 05:21:09;;;;;;;9.15;4.47;;;;;;;24.02;56.88;93851.34;2949916;40;20061;-79
2021/08/06 05:23:10;;;;;;;10.50;4.13;;;;;;;24.07;57.22;93853.22;2950101;40;20143;-80
2021/08/06 05:25:12;;;;;;;7.78;4.70;;;;;;;24.11;57.36;93865.84;2947355;40;20053;-78
2021/08/06 05:27:14;;;;;;;10.35;4.85;;;;;;;24.13;57.14;93868.22;2961504;40;20071;-78
2021/08/06 05:29:15;;;;;;;11.35;4.43;;;;;;;24.17;56.70;93865.84;2949988;40;20170;-80
2021/08/06 05:31:19;;;;;;;7.80;4.93;;;;;;;24.20;57.32;93863.44;2946783;40;20061;-79
2021/08/06 05:33:21;;;;;;;9.05;5.32;;;;;;;24.17;58.50;93869.31;2957455;40;20089;-77
2021/08/06 05:35:23;;;;;;;9.02;5.68;;;;;;;24.13;58.35;93878.94;2950398;40;20053;-79
2021/08/06 05:37:24;;;;;;;11.32;5.40;;;;;;;24.02;58.67;93880.78;2948745;40;20421;-79
2021/08/06 05:39:26;;;;;;;10.95;4.95;;;;;;;24.03;58.90;93876.25;2957330;40;20076;-80
2021/08/06 05:41:28;;;;;;;7.88;4.22;;;;;;;23.99;58.13;93873.28;2949997;40;20324;-80
2021/08/06 05:43:29;;;;;;;9.18;4.47;;;;;;;23.85;58.29;93885.53;2949905;40;20347;-80
2021/08/06 05:45:31;;;;;;;12.32;4.85;;;;;;;23.78;58.74;93880.41;2950223;40;20063;-79
2021/08/06 05:47:42;;;;;;;9.27;4.63;;;;;;;23.77;58.01;93878.00;2942542;40;20131;-81
2021/08/06 05:49:45;;;;;;;9.93;4.00;;;;;;;23.74;56.59;93883.84;2950243;40;20063;-79
2021/08/06 05:51:46;;;;;;;8.35;4.13;;;;;;;23.81;56.55;93885.25;2950138;40;20057;-81
2021/08/06 05:53:48;;;;;;;6.20;4.15;;;;;;;23.82;56.80;93891.41;2950236;40;20061;-83
2021/08/06 05:55:50;;;;;;;6.55;3.83;;;;;;;23.71;55.73;93891.31;2944605;40;20061;-79
2021/08/06 05:57:51;;;;;;;10.63;4.32;;;;;;;23.58;56.33;93899.03;2964742;40;20092;-79
2021/08/06 05:59:53;;;;;;;8.95;3.80;;;;;;;23.43;55.68;93897.06;2944027;40;20142;-81
2021/08/06 06:01:55;;;;;;;9.25;5.00;;;;;;;23.36;55.04;93894.63;2953585;40;20053;-80
2021/08/06 06:03:57;;;;;;;11.65;4.53;;;;;;;23.16;56.50;93894.47;2946130;40;20126;-79
2021/08/06 06:05:58;;;;;;;8.77;3.97;;;;;;;23.34;56.07;93895.91;2949685;40;20057;-79
2021/08/06 06:08:00;;;;;;;9.18;4.70;;;;;;;23.24;56.13;93894.00;2949234;40;20373;-80
2021/08/06 06:10:02;;;;;;;8.93;4.13;;;;;;;23.25;56.02;93895.59;2944187;40;20138;-80
2021/08/06 06:12:04;;;;;;;13.07;4.53;;;;;;;23.36;55.66;93904.50;2949234;40;20139;-80
2021/08/06 06:14:06;;;;;;;14.23;4.70;;;;;;;23.27;55.91;93905.00;2958211;40;20064;-79
2021/08/06 06:16:08;;;;;;;6.82;3.58;;;;;;;23.54;55.70;93912.09;2950264;40;20288;-77
2021/08/06 06:18:10;;;;;;;8.43;3.83;;;;;;;23.58;55.44;93918.53;2950533;40;20104;-79
2021/08/06 06:20:12;;;;;;;9.05;3.70;;;;;;;23.66;55.51;93918.06;2955615;40;20069;-78
2021/08/06 06:22:14;;;;;;;9.82;4.22;;;;;;;23.80;54.96;93917.59;2947574;40;20057;-81
2021/08/06 06:24:15;;;;;;;14.05;4.30;;;;;;;24.00;55.02;93923.03;2950743;40;20112;-82
2021/08/06 06:26:17;;;;;;;11.98;4.25;;;;;;;24.25;54.30;93913.50;2951992;40;20069;-81
2021/08/06 06:28:19;;;;;;;7.05;4.00;;;;;;;24.36;53.86;93914.34;2950681;40;20049;-79
2021/08/06 06:30:23;;;;;;;8.40;3.80;;;;;;;24.40;53.72;93908.19;2950873;40;20065;-78
2021/08/06 06:32:25;;;;;;;6.80;3.70;;;;;;;24.46;53.10;93912.47;2951804;40;20064;-79
2021/08/06 06:34:27;;;;;;;8.07;4.63;;;;;;;23.93;55.55;93914.44;2949755;40;20093;-78
2021/08/06 06:36:29;;;;;;;9.55;5.28;;;;;;;23.70;55.37;93923.66;2946849;40;20061;-78
2021/08/06 06:38:31;;;;;;;10.75;3.78;;;;;;;23.56;54.52;93920.66;2949440;40;20563;-78
2021/08/06 06:40:33;;;;;;;7.75;3.95;;;;;;;23.77;53.63;93915.44;2949846;40;20061;-81
2021/08/06 06:42:34;;;;;;;8.32;3.78;;;;;;;23.85;53.61;93907.72;2950170;40;20057;-78
2021/08/06 06:44:36;;;;;;;8.20;4.35;;;;;;;23.79;54.00;93926.69;2949799;40;20139;-82
2021/08/06 06:46:38;;;;;;;8.77;3.50;;;;;;;23.50;53.39;93924.38;2949670;40;20061;-80
2021/08/06 06:48:40;;;;;;;13.40;4.90;;;;;;;23.57;53.93;93922.25;2949926;40;20057;-80
2021/08/06 06:50:41;;;;;;;10.70;4.63;;;;;;;23.54;54.01;93917.44;2949973;40;20113;-82
2021/08/06 06:52:44;;;;;;;12.10;4.65;;;;;;;23.69;53.70;93912.16;2949023;40;20165;-80
2021/08/06 06:54:46;;;;;;;10.90;4.82;;;;;;;23.38;54.52;93915.72;2965367;40;20096;-80
2021/08/06 06:56:47;;;;;;;8.50;4.18;;;;;;;22.57;56.68;93922.81;2948312;40;20053;-80
2021/08/06 06:58:49;;;;;;;8.57;4.80;;;;;;;22.48;57.51;93911.78;2965795;40;20095;-80
2021/08/06 07:00:51;;;;;;;9.65;4.90;;;;;;;22.58;57.68;93908.41;2949591;40;20447;-79
2021/08/06 07:02:53;;;;;;;11.52;4.45;;;;;;;22.73;57.21;93915.75;2949682;40;20146;-81
2021/08/06 07:04:55;;;;;;;9.80;4.35;;;;;;;23.20;55.43;93899.03;2947476;40;20547;-78
2021/08/06 07:06:57;;;;;;;9.20;4.38;;;;;;;23.27;54.98;93896.97;2947877;40;20381;-79
2021/08/06 07:08:58;;;;;;;10.73;5.15;;;;;;;23.53;54.79;93894.44;2949802;40;20415;-80
2021/08/06 07:11:00;;;;;;;9.55;5.07;;;;;;;23.75;53.70;93896.13;2949167;40;20069;-78
2021/08/06 07:13:02;;;;;;;11.55;5.38;;;;;;;23.84;53.42;93903.44;2949395;40;20055;-80
2021/08/06 07:15:05;;;;;;;7.75;4.20;;;;;;;23.99;52.44;93904.59;2949488;40;20089;-82
2021/08/06 07:17:07;;;;;;;11.55;4.93;;;;;;;23.94;52.62;93902.69;2949035;40;20070;-79
2021/08/06 07:19:09;;;;;;;10.38;4.68;;;;;;;23.66;53.22;93898.50;2949131;40;20065;-78
2021/08/06 07:21:12;;;;;;;10.38;4.28;;;;;;;23.90;53.32;93890.91;2956971;40;20171;-81
2021/08/06 07:23:15;;;;;;;8.23;4.78;;;;;;;24.15;52.39;93894.72;2949876;40;20053;-81
2021/08/06 07:25:17;;;;;;;9.05;5.05;;;;;;;24.38;52.02;93878.19;2950399;40;20073;-80
2021/08/06 07:27:19;;;;;;;10.65;5.18;;;;;;;24.66;51.52;93890.31;2957343;40;20056;-79
2021/08/06 07:29:21;;;;;;;8.90;4.43;;;;;;;24.52;52.06;93889.22;2951966;40;20057;-78
2021/08/06 07:31:23;;;;;;;12.95;4.47;;;;;;;24.59;52.16;93892.47;2950425;40;20065;-78
2021/08/06 07:33:24;;;;;;;11.55;4.20;;;;;;;24.55;51.60;93882.56;2949812;40;20068;-81
2021/08/06 07:35:31;;;;;;;8.68;3.95;;;;;;;24.43;51.51;93888.91;2949890;40;20126;-80
2021/08/06 07:37:33;;;;;;;7.03;4.38;;;;;;;24.46;51.44;93876.88;2944942;40;20382;-80
2021/08/06 07:39:35;;;;;;;13.40;5.15;;;;;;;24.33;51.95;93886.22;2948839;40;20408;-71
2021/08/06 07:41:36;;;;;;;9.00;4.70;;;;;;;24.25;51.77;93876.03;2949461;40;20138;-72
2021/08/06 07:43:38;;;;;;;10.63;4.65;;;;;;;24.65;51.09;93877.19;2956039;40;20053;-73
2021/08/06 07:45:43;;;;;;;10.60;4.57;;;;;;;24.66;51.50;93881.47;2964896;40;20401;-72
2021/08/06 07:47:45;;;;;;;12.55;4.63;;;;;;;24.10;52.57;93880.28;2948612;40;20201;-71
2021/08/06 07:49:47;;;;;;;17.35;8.40;;;;;;;24.19;51.88;93877.09;2948299;40;20123;-73
2021/08/06 07:51:49;;;;;;;9.50;6.13;;;;;;;23.74;53.54;93875.81;2947049;40;20061;-71
2021/08/06 07:53:50;;;;;;;13.30;5.90;;;;;;;23.75;53.03;93872.91;2945231;40;20073;-70
2021/08/06 07:55:52;;;;;;;14.30;4.22;;;;;;;24.12;52.38;93872.00;2944904;40;20058;-73
2021/08/06 07:57:54;;;;;;;9.82;5.13;;;;;;;24.05;51.74;93869.56;2947734;40;20073;-71
2021/08/06 07:59:56;;;;;;;10.77;4.85;;;;;;;23.56;53.32;93874.41;2948882;40;20058;-70
2021/08/06 08:01:58;;;;;;;12.88;5.68;;;;;;;23.20;54.48;93880.34;2950692;40;20045;-70
2021/08/06 08:04:00;;;;;;;10.63;5.85;;;;;;;23.50;53.90;93877.03;2950896;40;20041;-70
2021/08/06 08:06:02;;;;;;;10.68;5.03;;;;;;;23.94;52.99;93867.09;2940256;40;20073;-69
2021/08/06 08:08:04;;;;;;;9.73;5.10;;;;;;;24.25;51.75;93860.78;2948466;40;20073;-71
2021/08/06 08:10:06;;;;;;;8.90;4.80;;;;;;;24.67;50.21;93869.69;2949193;40;20069;-71
2021/08/06 08:12:08;;;;;;;9.77;4.30;;;;;;;24.93;49.64;93871.31;2949402;40;20415;-70
2021/08/06 08:14:10;;;;;;;10.32;4.72;;;;;;;24.70;50.33;93864.59;2949238;40;20083;-72
2021/08/06 08:16:12;;;;;;;8.20;4.50;;;;;;;24.79;49.56;93862.19;2949107;40;20081;-71
2021/08/06 08:18:14;;;;;;;18.23;5.65;;;;;;;24.63;49.36;93863.25;2949270;40;20528;-70
2021/08/06 08:20:16;;;;;;;10.60;5.78;;;;;;;24.39;50.16;93870.97;2964648;40;20052;-72
2021/08/06 08:22:18;;;;;;;9.35;5.00;;;;;;;24.71;49.21;93865.41;2949130;40;20065;-73
2021/08/06 08:24:19;;;;;;;11.57;4.82;;;;;;;25.08;48.30;93861.63;2950495;40;20382;-71
2021/08/06 08:26:21;;;;;;;8.60;4.90;;;;;;;24.23;49.97;93859.44;2950015;40;20134;-72
2021/08/06 08:28:25;;;;;;;10.48;5.45;;;;;;;24.46;49.77;93858.16;2948595;40;20104;-69
2021/08/06 08:30:27;;;;;;;7.28;4.50;;;;;;;24.80;49.55;93855.78;2950130;40;20057;-71
2021/08/06 08:32:32;;;;;;;8.52;4.90;;;;;;;24.98;49.27;93850.94;2956365;40;20068;-69
2021/08/06 08:34:34;;;;;;;11.95;5.50;;;;;;;25.20;48.53;93838.06;2950233;40;20106;-72
2021/08/06 08:36:36;;;;;;;9.93;6.30;;;;;;;25.27;47.69;93843.16;2948582;40;20135;-71
2021/08/06 08:38:59;;;;;;;9.38;5.60;;;;;;;24.76;49.39;93843.16;2949609;40;20057;-69
2021/08/06 08:41:02;;;;;;;8.57;5.30;;;;;;;24.89;48.88;93846.13;2948770;40;20085;-70
2021/08/06 08:43:06;;;;;;;11.90;5.35;;;;;;;25.23;48.06;93858.16;2949608;40;20104;-69
2021/08/06 08:45:08;;;;;;;6.97;5.45;;;;;;;25.47;47.37;93837.75;2950974;40;20612;-71
2021/08/06 08:47:10;;;;;;;6.97;5.68;;;;;;;25.60;47.52;93855.16;2955528;40;20413;-70
2021/08/06 08:49:12;;;;;;;8.52;5.60;;;;;;;25.58;47.48;93838.53;2948733;40;20042;-68
2021/08/06 08:51:14;;;;;;;10.55;5.70;;;;;;;25.71;47.13;93854.03;2950578;40;20422;-70
2021/08/06 08:53:15;;;;;;;8.32;5.30;;;;;;;25.93;46.66;93848.31;2965743;40;20068;-72
2021/08/06 08:55:17;;;;;;;8.27;5.10;;;;;;;26.24;45.81;93839.31;2950570;40;20069;-74
2021/08/06 08:57:20;;;;;;;8.40;5.50;;;;;;;26.22;45.79;93842.28;2950436;40;20069;-70
2021/08/06 08:59:22;;;;;;;9.75;5.03;;;;;;;26.44;45.07;93841.88;2948900;40;20053;-71
2021/08/06 09:01:24;;;;;;;10.15;4.95;;;;;;;26.64;44.03;93837.47;2956298;40;20425;-69
2021/08/06 09:03:45;;;;;;;8.57;5.65;;;;;;;26.32;44.71;93847.56;2949211;40;20045;-70
2021/08/06 09:05:50;;;;;;;10.93;5.35;;;;;;;26.38;43.86;93851.03;2956900;40;20154;-71
2021/08/06 09:07:53;;;;;;;10.07;6.20;;;;;;;26.46;43.01;93841.59;2947921;40;20148;-71
2021/08/06 09:10:19;;;;;;;11.13;6.78;;;;;;;26.48;43.00;93840.25;2948008;40;20049;-69
2021/08/06 09:12:21;;;;;;;10.27;7.57;;;;;;;26.65;43.07;93847.94;2949989;40;20054;-70
2021/08/06 09:14:25;;;;;;;9.55;7.43;;;;;;;26.47;43.61;93856.63;2957167;40;20073;-71
2021/08/06 09:16:27;;;;;;;12.32;7.43;;;;;;;26.03;43.86;93855.53;2962874;40;20056;-70
2021/08/06 09:18:38;;;;;;;8.63;7.10;;;;;;;26.02;44.20;93847.75;2955978;40;20154;-73
2021/08/06 09:20:40;;;;;;;9.55;6.75;;;;;;;26.34;42.93;93850.78;2949080;40;20556;-69
2021/08/06 09:22:42;;;;;;;9.40;7.50;;;;;;;26.58;42.71;93846.66;2948745;40;20302;-71
2021/08/06 09:25:15;;;;;;;8.60;7.05;;;;;;;26.55;41.02;93840.72;2948569;40;20495;-71
2021/08/06 09:27:17;;;;;;;9.52;7.15;;;;;;;26.87;40.17;93842.13;2943007;40;20060;-72
2021/08/06 09:29:21;;;;;;;8.15;7.25;;;;;;;26.69;41.06;93861.59;2961485;40;20113;-72
2021/08/06 09:31:23;;;;;;;9.90;7.10;;;;;;;26.63;41.59;93835.84;2949471;40;20041;-74
2021/08/06 09:33:32;;;;;;;8.18;6.53;;;;;;;26.80;41.13;93827.38;2946850;40;20142;-72
2021/08/06 09:35:35;;;;;;;7.57;6.50;;;;;;;26.95;40.17;93846.06;2953654;40;20211;-73